sensor_id;sensor_type;location;lat;lon;timestamp;P1;durP1;ratioP1;P2;durP2;ratioP2
59516;SDS011;45342;42.662;27.718;2023-07-24T00:02:15;5.05;;;4.65;;
59516;SDS011;45342;42.662;27.718;2023-07-24T00:04:40;5.55;;;5.00;;
59516;SDS011;45342;42.662;27.718;2023-07-24T00:07:06;5.60;;;4.65;;
59516;SDS011;45342;42.662;27.718;2023-07-24T00:09:32;5.65;;;4.93;;
59516;SDS011;45342;42.662;27.718;2023-07-24T00:11:57;5.35;;;4.65;;
59516;SDS011;45342;42.662;27.718;2023-07-24T00:14:23;5.32;;;4.82;;
59516;SDS011;45342;42.662;27.718;2023-07-24T00:16:49;5.78;;;4.93;;
59516;SDS011;45342;42.662;27.718;2023-07-24T00:19:15;5.32;;;4.82;;
59516;SDS011;45342;42.662;27.718;2023-07-24T00:21:40;5.40;;;4.90;;
59516;SDS011;45342;42.662;27.718;2023-07-24T00:24:06;6.15;;;5.28;;
59516;SDS011;45342;42.662;27.718;2023-07-24T00:26:32;5.47;;;4.97;;
59516;SDS011;45342;42.662;27.718;2023-07-24T00:28:58;5.18;;;4.68;;
59516;SDS011;45342;42.662;27.718;2023-07-24T00:31:24;5.80;;;5.15;;
59516;SDS011;45342;42.662;27.718;2023-07-24T00:33:50;5.80;;;4.75;;
59516;SDS011;45342;42.662;27.718;2023-07-24T00:36:16;5.40;;;4.90;;
59516;SDS011;45342;42.662;27.718;2023-07-24T00:38:41;5.28;;;4.80;;
59516;SDS011;45342;42.662;27.718;2023-07-24T00:41:07;5.40;;;4.70;;
59516;SDS011;45342;42.662;27.718;2023-07-24T00:43:32;4.97;;;4.57;;
59516;SDS011;45342;42.662;27.718;2023-07-24T00:45:58;5.30;;;4.80;;
59516;SDS011;45342;42.662;27.718;2023-07-24T00:48:24;5.47;;;4.97;;
59516;SDS011;45342;42.662;27.718;2023-07-24T00:50:49;6.32;;;4.72;;
59516;SDS011;45342;42.662;27.718;2023-07-24T00:53:15;5.00;;;4.60;;
59516;SDS011;45342;42.662;27.718;2023-07-24T00:55:42;5.07;;;4.57;;
59516;SDS011;45342;42.662;27.718;2023-07-24T00:58:08;6.72;;;5.03;;
59516;SDS011;45342;42.662;27.718;2023-07-24T01:00:37;6.10;;;5.00;;
59516;SDS011;45342;42.662;27.718;2023-07-24T01:03:04;5.55;;;4.95;;
59516;SDS011;45342;42.662;27.718;2023-07-24T01:05:29;5.15;;;4.65;;
59516;SDS011;45342;42.662;27.718;2023-07-24T01:07:55;5.55;;;4.93;;
59516;SDS011;45342;42.662;27.718;2023-07-24T01:10:21;4.95;;;4.45;;
59516;SDS011;45342;42.662;27.718;2023-07-24T01:13:04;5.90;;;4.60;;
59516;SDS011;45342;42.662;27.718;2023-07-24T01:15:34;5.03;;;4.57;;
59516;SDS011;45342;42.662;27.718;2023-07-24T01:18:09;5.20;;;4.70;;
59516;SDS011;45342;42.662;27.718;2023-07-24T01:20:36;5.03;;;4.50;;
59516;SDS011;45342;42.662;27.718;2023-07-24T01:26:03;5.43;;;4.93;;
59516;SDS011;45342;42.662;27.718;2023-07-24T01:28:29;5.32;;;4.82;;
59516;SDS011;45342;42.662;27.718;2023-07-24T01:30:55;5.47;;;4.97;;
59516;SDS011;45342;42.662;27.718;2023-07-24T01:33:21;4.90;;;4.50;;
59516;SDS011;45342;42.662;27.718;2023-07-24T01:35:50;6.07;;;4.90;;
59516;SDS011;45342;42.662;27.718;2023-07-24T01:38:25;5.20;;;4.50;;
59516;SDS011;45342;42.662;27.718;2023-07-24T01:40:52;5.30;;;4.80;;
59516;SDS011;45342;42.662;27.718;2023-07-24T01:43:18;5.53;;;4.85;;
59516;SDS011;45342;42.662;27.718;2023-07-24T01:45:44;6.43;;;4.50;;
59516;SDS011;45342;42.662;27.718;2023-07-24T01:48:10;5.10;;;4.60;;
59516;SDS011;45342;42.662;27.718;2023-07-24T01:50:35;4.93;;;4.43;;
59516;SDS011;45342;42.662;27.718;2023-07-24T01:53:01;5.15;;;4.65;;
59516;SDS011;45342;42.662;27.718;2023-07-24T01:55:27;5.63;;;5.00;;
59516;SDS011;45342;42.662;27.718;2023-07-24T01:57:53;5.63;;;5.13;;
59516;SDS011;45342;42.662;27.718;2023-07-24T02:00:18;5.50;;;4.80;;
59516;SDS011;45342;42.662;27.718;2023-07-24T02:02:44;5.22;;;4.72;;
59516;SDS011;45342;42.662;27.718;2023-07-24T02:05:10;5.60;;;5.03;;
59516;SDS011;45342;42.662;27.718;2023-07-24T02:07:35;5.00;;;4.50;;
59516;SDS011;45342;42.662;27.718;2023-07-24T02:10:01;6.43;;;4.90;;
59516;SDS011;45342;42.662;27.718;2023-07-24T02:12:27;5.68;;;5.18;;
59516;SDS011;45342;42.662;27.718;2023-07-24T02:14:52;5.60;;;5.00;;
59516;SDS011;45342;42.662;27.718;2023-07-24T02:17:19;5.95;;;4.95;;
59516;SDS011;45342;42.662;27.718;2023-07-24T02:19:45;4.82;;;4.43;;
59516;SDS011;45342;42.662;27.718;2023-07-24T02:22:11;6.30;;;5.40;;
59516;SDS011;45342;42.662;27.718;2023-07-24T02:24:37;5.05;;;4.60;;
59516;SDS011;45342;42.662;27.718;2023-07-24T02:27:04;5.45;;;4.95;;
59516;SDS011;45342;42.662;27.718;2023-07-24T02:29:30;6.38;;;5.22;;
59516;SDS011;45342;42.662;27.718;2023-07-24T02:31:56;5.13;;;4.55;;
59516;SDS011;45342;42.662;27.718;2023-07-24T02:34:23;5.20;;;4.65;;
59516;SDS011;45342;42.662;27.718;2023-07-24T02:36:51;5.07;;;4.25;;
59516;SDS011;45342;42.662;27.718;2023-07-24T02:39:18;4.97;;;4.47;;
59516;SDS011;45342;42.662;27.718;2023-07-24T02:41:44;5.22;;;4.72;;
59516;SDS011;45342;42.662;27.718;2023-07-24T02:44:10;5.18;;;4.68;;
59516;SDS011;45342;42.662;27.718;2023-07-24T02:46:37;5.10;;;4.57;;
59516;SDS011;45342;42.662;27.718;2023-07-24T02:49:03;4.90;;;4.40;;
59516;SDS011;45342;42.662;27.718;2023-07-24T02:51:28;5.10;;;4.60;;
59516;SDS011;45342;42.662;27.718;2023-07-24T02:53:54;5.07;;;4.60;;
59516;SDS011;45342;42.662;27.718;2023-07-24T02:56:20;4.53;;;4.13;;
59516;SDS011;45342;42.662;27.718;2023-07-24T02:58:46;5.07;;;4.50;;
59516;SDS011;45342;42.662;27.718;2023-07-24T03:01:12;5.75;;;4.60;;
59516;SDS011;45342;42.662;27.718;2023-07-24T03:03:39;5.38;;;4.88;;
59516;SDS011;45342;42.662;27.718;2023-07-24T03:06:05;4.80;;;4.38;;
59516;SDS011;45342;42.662;27.718;2023-07-24T03:08:31;5.30;;;4.80;;
59516;SDS011;45342;42.662;27.718;2023-07-24T03:10:57;4.78;;;4.38;;
59516;SDS011;45342;42.662;27.718;2023-07-24T03:13:23;5.68;;;4.75;;
59516;SDS011;45342;42.662;27.718;2023-07-24T03:15:52;5.30;;;4.45;;
59516;SDS011;45342;42.662;27.718;2023-07-24T03:18:21;4.90;;;4.50;;
59516;SDS011;45342;42.662;27.718;2023-07-24T03:20:47;4.90;;;4.40;;
59516;SDS011;45342;42.662;27.718;2023-07-24T03:23:13;4.85;;;4.28;;
59516;SDS011;45342;42.662;27.718;2023-07-24T03:25:38;4.85;;;4.35;;
59516;SDS011;45342;42.662;27.718;2023-07-24T03:28:04;5.45;;;4.95;;
59516;SDS011;45342;42.662;27.718;2023-07-24T03:30:30;5.30;;;4.80;;
59516;SDS011;45342;42.662;27.718;2023-07-24T03:32:55;5.75;;;4.65;;
59516;SDS011;45342;42.662;27.718;2023-07-24T03:35:21;5.07;;;4.68;;
59516;SDS011;45342;42.662;27.718;2023-07-24T03:37:47;5.45;;;4.95;;
59516;SDS011;45342;42.662;27.718;2023-07-24T03:40:13;5.32;;;4.82;;
59516;SDS011;45342;42.662;27.718;2023-07-24T03:42:39;5.30;;;4.80;;
59516;SDS011;45342;42.662;27.718;2023-07-24T03:45:05;6.00;;;4.88;;
59516;SDS011;45342;42.662;27.718;2023-07-24T04:00:21;5.90;;;4.82;;
59516;SDS011;45342;42.662;27.718;2023-07-24T04:02:47;5.32;;;4.80;;
59516;SDS011;45342;42.662;27.718;2023-07-24T04:05:12;5.10;;;4.60;;
59516;SDS011;45342;42.662;27.718;2023-07-24T04:07:38;4.75;;;4.35;;
59516;SDS011;45342;42.662;27.718;2023-07-24T04:10:06;6.03;;;4.90;;
59516;SDS011;45342;42.662;27.718;2023-07-24T04:12:32;5.43;;;4.88;;
59516;SDS011;45342;42.662;27.718;2023-07-24T04:14:58;5.28;;;4.88;;
59516;SDS011;45342;42.662;27.718;2023-07-24T04:17:24;4.70;;;4.28;;
59516;SDS011;45342;42.662;27.718;2023-07-24T04:19:49;5.13;;;4.63;;
59516;SDS011;45342;42.662;27.718;2023-07-24T04:22:15;5.20;;;4.70;;
59516;SDS011;45342;42.662;27.718;2023-07-24T04:24:40;4.93;;;4.50;;
59516;SDS011;45342;42.662;27.718;2023-07-24T04:27:24;4.80;;;4.40;;
59516;SDS011;45342;42.662;27.718;2023-07-24T04:30:27;5.28;;;4.63;;
59516;SDS011;45342;42.662;27.718;2023-07-24T04:38:51;5.72;;;4.53;;
59516;SDS011;45342;42.662;27.718;2023-07-24T04:41:20;4.55;;;4.15;;
59516;SDS011;45342;42.662;27.718;2023-07-24T04:44:43;5.15;;;4.68;;
59516;SDS011;45342;42.662;27.718;2023-07-24T04:47:09;4.88;;;4.47;;
59516;SDS011;45342;42.662;27.718;2023-07-24T04:49:34;5.30;;;4.80;;
59516;SDS011;45342;42.662;27.718;2023-07-24T04:52:01;4.72;;;4.32;;
59516;SDS011;45342;42.662;27.718;2023-07-24T04:54:28;5.85;;;4.75;;
59516;SDS011;45342;42.662;27.718;2023-07-24T04:56:53;5.03;;;4.47;;
59516;SDS011;45342;42.662;27.718;2023-07-24T04:59:19;5.40;;;4.90;;
59516;SDS011;45342;42.662;27.718;2023-07-24T05:01:45;4.53;;;4.05;;
59516;SDS011;45342;42.662;27.718;2023-07-24T05:04:10;4.68;;;4.22;;
59516;SDS011;45342;42.662;27.718;2023-07-24T05:06:36;5.43;;;4.63;;
59516;SDS011;45342;42.662;27.718;2023-07-24T05:09:04;5.38;;;4.60;;
59516;SDS011;45342;42.662;27.718;2023-07-24T05:11:30;6.18;;;4.90;;
59516;SDS011;45342;42.662;27.718;2023-07-24T05:13:55;4.90;;;4.47;;
59516;SDS011;45342;42.662;27.718;2023-07-24T05:16:22;5.13;;;4.63;;
59516;SDS011;45342;42.662;27.718;2023-07-24T05:18:49;4.53;;;4.13;;
59516;SDS011;45342;42.662;27.718;2023-07-24T05:21:33;4.88;;;4.47;;
59516;SDS011;45342;42.662;27.718;2023-07-24T05:24:36;5.18;;;4.75;;
59516;SDS011;45342;42.662;27.718;2023-07-24T05:27:06;5.32;;;4.82;;
59516;SDS011;45342;42.662;27.718;2023-07-24T05:29:32;5.35;;;4.50;;
59516;SDS011;45342;42.662;27.718;2023-07-24T05:31:57;5.50;;;4.75;;
59516;SDS011;45342;42.662;27.718;2023-07-24T05:34:24;5.75;;;4.65;;
59516;SDS011;45342;42.662;27.718;2023-07-24T05:36:52;6.03;;;4.65;;
59516;SDS011;45342;42.662;27.718;2023-07-24T05:39:25;4.28;;;3.88;;
59516;SDS011;45342;42.662;27.718;2023-07-24T05:41:56;4.82;;;4.40;;
59516;SDS011;45342;42.662;27.718;2023-07-24T05:44:25;4.65;;;4.28;;
59516;SDS011;45342;42.662;27.718;2023-07-24T05:47:32;4.82;;;4.32;;
59516;SDS011;45342;42.662;27.718;2023-07-24T05:50:02;4.80;;;4.40;;
59516;SDS011;45342;42.662;27.718;2023-07-24T05:52:51;4.95;;;4.53;;
59516;SDS011;45342;42.662;27.718;2023-07-24T05:55:33;9.68;;;6.70;;
59516;SDS011;45342;42.662;27.718;2023-07-24T05:58:03;7.28;;;6.28;;
59516;SDS011;45342;42.662;27.718;2023-07-24T06:01:01;8.23;;;5.88;;
59516;SDS011;45342;42.662;27.718;2023-07-24T06:03:33;5.75;;;5.22;;
59516;SDS011;45342;42.662;27.718;2023-07-24T06:09:55;7.45;;;5.55;;
59516;SDS011;45342;42.662;27.718;2023-07-24T06:12:33;5.97;;;4.78;;
59516;SDS011;45342;42.662;27.718;2023-07-24T06:15:18;5.18;;;4.65;;
59516;SDS011;45342;42.662;27.718;2023-07-24T06:17:47;5.82;;;4.85;;
59516;SDS011;45342;42.662;27.718;2023-07-24T06:20:41;5.00;;;4.50;;
59516;SDS011;45342;42.662;27.718;2023-07-24T06:23:07;6.03;;;4.50;;
59516;SDS011;45342;42.662;27.718;2023-07-24T06:28:23;5.40;;;4.43;;
59516;SDS011;45342;42.662;27.718;2023-07-24T06:30:54;4.90;;;4.40;;
59516;SDS011;45342;42.662;27.718;2023-07-24T06:33:22;4.93;;;4.05;;
59516;SDS011;45342;42.662;27.718;2023-07-24T06:35:49;5.35;;;4.70;;
59516;SDS011;45342;42.662;27.718;2023-07-24T06:38:15;4.13;;;3.72;;
59516;SDS011;45342;42.662;27.718;2023-07-24T06:40:43;4.43;;;3.97;;
59516;SDS011;45342;42.662;27.718;2023-07-24T06:43:09;4.22;;;3.83;;
59516;SDS011;45342;42.662;27.718;2023-07-24T06:45:35;4.22;;;3.78;;
59516;SDS011;45342;42.662;27.718;2023-07-24T06:48:01;4.20;;;3.80;;
59516;SDS011;45342;42.662;27.718;2023-07-24T06:50:26;4.30;;;3.90;;
59516;SDS011;45342;42.662;27.718;2023-07-24T06:52:52;3.88;;;3.58;;
59516;SDS011;45342;42.662;27.718;2023-07-24T06:55:21;3.90;;;3.60;;
59516;SDS011;45342;42.662;27.718;2023-07-24T06:57:47;4.00;;;3.70;;
59516;SDS011;45342;42.662;27.718;2023-07-24T07:00:13;4.65;;;3.75;;
59516;SDS011;45342;42.662;27.718;2023-07-24T07:02:39;3.75;;;3.45;;
59516;SDS011;45342;42.662;27.718;2023-07-24T07:05:05;4.57;;;4.03;;
59516;SDS011;45342;42.662;27.718;2023-07-24T07:07:31;4.18;;;3.80;;
59516;SDS011;45342;42.662;27.718;2023-07-24T07:09:57;3.65;;;3.35;;
59516;SDS011;45342;42.662;27.718;2023-07-24T07:12:22;4.05;;;3.65;;
59516;SDS011;45342;42.662;27.718;2023-07-24T07:14:48;3.58;;;3.28;;
59516;SDS011;45342;42.662;27.718;2023-07-24T07:17:14;4.15;;;3.40;;
59516;SDS011;45342;42.662;27.718;2023-07-24T07:19:40;3.95;;;3.20;;
59516;SDS011;45342;42.662;27.718;2023-07-24T07:22:06;3.38;;;3.08;;
59516;SDS011;45342;42.662;27.718;2023-07-24T07:24:31;3.83;;;3.45;;
59516;SDS011;45342;42.662;27.718;2023-07-24T07:26:58;3.88;;;3.47;;
59516;SDS011;45342;42.662;27.718;2023-07-24T07:29:24;4.25;;;3.35;;
59516;SDS011;45342;42.662;27.718;2023-07-24T07:31:49;3.40;;;3.10;;
59516;SDS011;45342;42.662;27.718;2023-07-24T07:34:15;3.92;;;3.38;;
59516;SDS011;45342;42.662;27.718;2023-07-24T07:36:41;3.53;;;3.22;;
59516;SDS011;45342;42.662;27.718;2023-07-24T07:39:07;4.25;;;3.13;;
59516;SDS011;45342;42.662;27.718;2023-07-24T07:41:32;3.15;;;2.85;;
59516;SDS011;45342;42.662;27.718;2023-07-24T07:43:58;3.17;;;2.90;;
59516;SDS011;45342;42.662;27.718;2023-07-24T07:46:24;3.40;;;3.03;;
59516;SDS011;45342;42.662;27.718;2023-07-24T07:48:49;3.80;;;2.97;;
59516;SDS011;45342;42.662;27.718;2023-07-24T07:51:15;3.28;;;2.97;;
59516;SDS011;45342;42.662;27.718;2023-07-24T07:53:41;3.38;;;3.08;;
59516;SDS011;45342;42.662;27.718;2023-07-24T07:56:06;3.55;;;2.80;;
59516;SDS011;45342;42.662;27.718;2023-07-24T07:58:33;3.33;;;3.03;;
59516;SDS011;45342;42.662;27.718;2023-07-24T08:01:05;3.08;;;2.85;;
59516;SDS011;45342;42.662;27.718;2023-07-24T08:03:30;3.42;;;3.13;;
59516;SDS011;45342;42.662;27.718;2023-07-24T08:05:57;3.30;;;3.00;;
59516;SDS011;45342;42.662;27.718;2023-07-24T08:08:23;3.63;;;2.88;;
59516;SDS011;45342;42.662;27.718;2023-07-24T08:10:49;3.10;;;2.90;;
59516;SDS011;45342;42.662;27.718;2023-07-24T08:13:15;3.45;;;3.15;;
59516;SDS011;45342;42.662;27.718;2023-07-24T08:15:44;3.38;;;3.08;;
59516;SDS011;45342;42.662;27.718;2023-07-24T08:18:09;2.80;;;2.50;;
59516;SDS011;45342;42.662;27.718;2023-07-24T08:20:35;4.90;;;2.95;;
59516;SDS011;45342;42.662;27.718;2023-07-24T08:23:02;2.97;;;2.67;;
59516;SDS011;45342;42.662;27.718;2023-07-24T08:25:28;3.80;;;3.15;;
59516;SDS011;45342;42.662;27.718;2023-07-24T08:27:53;3.78;;;3.20;;
59516;SDS011;45342;42.662;27.718;2023-07-24T08:30:19;2.80;;;2.60;;
59516;SDS011;45342;42.662;27.718;2023-07-24T08:32:45;3.00;;;2.72;;
59516;SDS011;45342;42.662;27.718;2023-07-24T08:35:10;2.90;;;2.60;;
59516;SDS011;45342;42.662;27.718;2023-07-24T08:37:36;5.13;;;3.15;;
59516;SDS011;45342;42.662;27.718;2023-07-24T08:40:01;3.25;;;2.90;;
59516;SDS011;45342;42.662;27.718;2023-07-24T08:42:27;3.38;;;3.08;;
59516;SDS011;45342;42.662;27.718;2023-07-24T08:44:53;3.30;;;2.97;;
59516;SDS011;45342;42.662;27.718;2023-07-24T08:47:19;3.97;;;2.80;;
59516;SDS011;45342;42.662;27.718;2023-07-24T08:49:45;3.35;;;3.05;;
59516;SDS011;45342;42.662;27.718;2023-07-24T08:52:11;3.10;;;2.90;;
59516;SDS011;45342;42.662;27.718;2023-07-24T08:54:37;3.17;;;2.88;;
59516;SDS011;45342;42.662;27.718;2023-07-24T08:57:04;2.72;;;2.53;;
59516;SDS011;45342;42.662;27.718;2023-07-24T08:59:31;2.92;;;2.72;;
59516;SDS011;45342;42.662;27.718;2023-07-24T09:01:57;3.15;;;2.85;;
59516;SDS011;45342;42.662;27.718;2023-07-24T09:04:23;2.88;;;2.67;;
59516;SDS011;45342;42.662;27.718;2023-07-24T09:06:49;3.25;;;2.80;;
59516;SDS011;45342;42.662;27.718;2023-07-24T09:09:15;3.00;;;2.80;;
59516;SDS011;45342;42.662;27.718;2023-07-24T09:11:51;3.00;;;2.70;;
59516;SDS011;45342;42.662;27.718;2023-07-24T09:14:25;2.90;;;2.70;;
59516;SDS011;45342;42.662;27.718;2023-07-24T09:17:04;2.70;;;2.50;;
59516;SDS011;45342;42.662;27.718;2023-07-24T09:19:32;3.05;;;2.85;;
59516;SDS011;45342;42.662;27.718;2023-07-24T09:24:56;2.83;;;2.63;;
59516;SDS011;45342;42.662;27.718;2023-07-24T09:27:26;3.05;;;2.78;;
59516;SDS011;45342;42.662;27.718;2023-07-24T09:29:53;3.17;;;2.95;;
59516;SDS011;45342;42.662;27.718;2023-07-24T09:32:21;3.03;;;2.83;;
59516;SDS011;45342;42.662;27.718;2023-07-24T09:34:48;3.10;;;2.80;;
59516;SDS011;45342;42.662;27.718;2023-07-24T09:37:32;2.97;;;2.70;;
59516;SDS011;45342;42.662;27.718;2023-07-24T09:39:59;2.80;;;2.60;;
59516;SDS011;45342;42.662;27.718;2023-07-24T09:42:31;2.78;;;2.58;;
59516;SDS011;45342;42.662;27.718;2023-07-24T09:45:00;3.60;;;3.17;;
59516;SDS011;45342;42.662;27.718;2023-07-24T09:47:27;2.78;;;2.55;;
59516;SDS011;45342;42.662;27.718;2023-07-24T09:49:53;2.80;;;2.60;;
59516;SDS011;45342;42.662;27.718;2023-07-24T09:52:19;3.53;;;2.58;;
59516;SDS011;45342;42.662;27.718;2023-07-24T09:54:55;2.67;;;2.47;;
59516;SDS011;45342;42.662;27.718;2023-07-24T09:57:26;3.38;;;2.70;;
59516;SDS011;45342;42.662;27.718;2023-07-24T09:59:54;2.80;;;2.60;;
59516;SDS011;45342;42.662;27.718;2023-07-24T10:02:21;2.60;;;2.40;;
59516;SDS011;45342;42.662;27.718;2023-07-24T10:04:48;2.85;;;2.63;;
59516;SDS011;45342;42.662;27.718;2023-07-24T10:07:15;2.70;;;2.50;;
59516;SDS011;45342;42.662;27.718;2023-07-24T10:09:47;2.67;;;2.47;;
59516;SDS011;45342;42.662;27.718;2023-07-24T10:12:13;2.78;;;2.58;;
59516;SDS011;45342;42.662;27.718;2023-07-24T10:14:38;2.90;;;2.70;;
59516;SDS011;45342;42.662;27.718;2023-07-24T10:17:04;2.78;;;2.58;;
59516;SDS011;45342;42.662;27.718;2023-07-24T10:19:38;2.60;;;2.40;;
59516;SDS011;45342;42.662;27.718;2023-07-24T10:22:19;2.85;;;2.65;;
59516;SDS011;45342;42.662;27.718;2023-07-24T10:24:46;2.88;;;2.65;;
59516;SDS011;45342;42.662;27.718;2023-07-24T10:27:22;2.60;;;2.40;;
59516;SDS011;45342;42.662;27.718;2023-07-24T10:30:12;2.55;;;2.35;;
59516;SDS011;45342;42.662;27.718;2023-07-24T10:32:48;2.50;;;2.30;;
59516;SDS011;45342;42.662;27.718;2023-07-24T10:35:16;2.90;;;2.60;;
59516;SDS011;45342;42.662;27.718;2023-07-24T10:37:45;2.75;;;2.55;;
59516;SDS011;45342;42.662;27.718;2023-07-24T10:40:20;3.05;;;2.60;;
59516;SDS011;45342;42.662;27.718;2023-07-24T10:42:46;3.70;;;2.90;;
59516;SDS011;45342;42.662;27.718;2023-07-24T10:45:12;3.38;;;2.95;;
59516;SDS011;45342;42.662;27.718;2023-07-24T10:47:40;4.80;;;3.05;;
59516;SDS011;45342;42.662;27.718;2023-07-24T10:50:06;2.95;;;2.75;;
59516;SDS011;45342;42.662;27.718;2023-07-24T10:52:33;3.00;;;2.80;;
59516;SDS011;45342;42.662;27.718;2023-07-24T10:55:01;3.30;;;3.00;;
59516;SDS011;45342;42.662;27.718;2023-07-24T10:57:27;3.10;;;2.67;;
59516;SDS011;45342;42.662;27.718;2023-07-24T10:59:54;3.05;;;2.75;;
59516;SDS011;45342;42.662;27.718;2023-07-24T11:02:20;3.75;;;3.20;;
59516;SDS011;45342;42.662;27.718;2023-07-24T11:04:46;2.80;;;2.60;;
59516;SDS011;45342;42.662;27.718;2023-07-24T11:07:12;2.72;;;2.50;;
59516;SDS011;45342;42.662;27.718;2023-07-24T11:09:39;3.10;;;2.85;;
59516;SDS011;45342;42.662;27.718;2023-07-24T11:12:16;3.88;;;2.83;;
59516;SDS011;45342;42.662;27.718;2023-07-24T11:14:48;2.95;;;2.65;;
59516;SDS011;45342;42.662;27.718;2023-07-24T11:17:19;2.70;;;2.50;;
59516;SDS011;45342;42.662;27.718;2023-07-24T11:19:45;3.00;;;2.80;;
59516;SDS011;45342;42.662;27.718;2023-07-24T11:22:11;3.20;;;2.90;;
59516;SDS011;45342;42.662;27.718;2023-07-24T11:24:43;3.33;;;3.03;;
59516;SDS011;45342;42.662;27.718;2023-07-24T11:27:14;3.15;;;2.88;;
59516;SDS011;45342;42.662;27.718;2023-07-24T11:29:51;3.08;;;2.78;;
59516;SDS011;45342;42.662;27.718;2023-07-24T11:32:18;3.22;;;2.92;;
59516;SDS011;45342;42.662;27.718;2023-07-24T11:34:46;3.03;;;2.80;;
59516;SDS011;45342;42.662;27.718;2023-07-24T11:37:12;3.33;;;3.03;;
59516;SDS011;45342;42.662;27.718;2023-07-24T11:39:42;3.03;;;2.72;;
59516;SDS011;45342;42.662;27.718;2023-07-24T11:42:20;3.05;;;2.83;;
59516;SDS011;45342;42.662;27.718;2023-07-24T11:45:01;2.90;;;2.60;;
59516;SDS011;45342;42.662;27.718;2023-07-24T11:47:53;2.80;;;2.60;;
59516;SDS011;45342;42.662;27.718;2023-07-24T11:51:12;2.90;;;2.70;;
59516;SDS011;45342;42.662;27.718;2023-07-24T11:53:39;2.67;;;2.47;;
59516;SDS011;45342;42.662;27.718;2023-07-24T11:56:12;3.10;;;2.90;;
59516;SDS011;45342;42.662;27.718;2023-07-24T11:58:40;2.90;;;2.70;;
59516;SDS011;45342;42.662;27.718;2023-07-24T12:01:05;2.88;;;2.67;;
59516;SDS011;45342;42.662;27.718;2023-07-24T12:03:31;3.35;;;3.05;;
59516;SDS011;45342;42.662;27.718;2023-07-24T12:05:57;4.22;;;2.80;;
59516;SDS011;45342;42.662;27.718;2023-07-24T12:08:41;3.67;;;2.63;;
59516;SDS011;45342;42.662;27.718;2023-07-24T12:11:15;3.03;;;2.80;;
59516;SDS011;45342;42.662;27.718;2023-07-24T12:13:42;2.95;;;2.63;;
59516;SDS011;45342;42.662;27.718;2023-07-24T12:16:11;4.03;;;2.75;;
59516;SDS011;45342;42.662;27.718;2023-07-24T12:18:37;3.63;;;2.83;;
59516;SDS011;45342;42.662;27.718;2023-07-24T12:21:02;3.30;;;3.00;;
59516;SDS011;45342;42.662;27.718;2023-07-24T12:23:31;2.67;;;2.42;;
59516;SDS011;45342;42.662;27.718;2023-07-24T12:25:57;2.75;;;2.55;;
59516;SDS011;45342;42.662;27.718;2023-07-24T12:28:22;2.75;;;2.55;;
59516;SDS011;45342;42.662;27.718;2023-07-24T12:30:48;2.90;;;2.60;;
59516;SDS011;45342;42.662;27.718;2023-07-24T12:33:17;3.10;;;2.78;;
59516;SDS011;45342;42.662;27.718;2023-07-24T12:35:45;2.80;;;2.60;;
59516;SDS011;45342;42.662;27.718;2023-07-24T12:38:14;2.75;;;2.55;;
59516;SDS011;45342;42.662;27.718;2023-07-24T12:40:40;2.97;;;2.70;;
59516;SDS011;45342;42.662;27.718;2023-07-24T12:43:06;3.03;;;2.83;;
59516;SDS011;45342;42.662;27.718;2023-07-24T12:45:31;2.75;;;2.55;;
59516;SDS011;45342;42.662;27.718;2023-07-24T12:47:57;2.80;;;2.60;;
59516;SDS011;45342;42.662;27.718;2023-07-24T12:50:23;3.30;;;3.00;;
59516;SDS011;45342;42.662;27.718;2023-07-24T12:52:50;2.72;;;2.50;;
59516;SDS011;45342;42.662;27.718;2023-07-24T12:55:16;2.67;;;2.47;;
59516;SDS011;45342;42.662;27.718;2023-07-24T12:57:42;3.08;;;2.60;;
59516;SDS011;45342;42.662;27.718;2023-07-24T13:00:08;2.50;;;2.30;;
59516;SDS011;45342;42.662;27.718;2023-07-24T13:02:34;4.00;;;2.53;;
59516;SDS011;45342;42.662;27.718;2023-07-24T13:05:00;3.28;;;2.97;;
59516;SDS011;45342;42.662;27.718;2023-07-24T13:07:26;2.90;;;2.70;;
59516;SDS011;45342;42.662;27.718;2023-07-24T13:09:54;2.75;;;2.50;;
59516;SDS011;45342;42.662;27.718;2023-07-24T13:12:20;3.00;;;2.70;;
59516;SDS011;45342;42.662;27.718;2023-07-24T13:14:52;2.47;;;2.28;;
59516;SDS011;45342;42.662;27.718;2023-07-24T13:17:23;2.63;;;2.42;;
59516;SDS011;45342;42.662;27.718;2023-07-24T13:19:51;3.08;;;2.78;;
59516;SDS011;45342;42.662;27.718;2023-07-24T13:22:17;3.17;;;2.47;;
59516;SDS011;45342;42.662;27.718;2023-07-24T13:24:42;2.67;;;2.47;;
59516;SDS011;45342;42.662;27.718;2023-07-24T13:27:11;2.55;;;2.35;;
59516;SDS011;45342;42.662;27.718;2023-07-24T13:29:36;2.80;;;2.60;;
59516;SDS011;45342;42.662;27.718;2023-07-24T13:32:02;2.85;;;2.65;;
59516;SDS011;45342;42.662;27.718;2023-07-24T13:34:28;2.80;;;2.60;;
59516;SDS011;45342;42.662;27.718;2023-07-24T13:36:53;2.58;;;2.38;;
59516;SDS011;45342;42.662;27.718;2023-07-24T13:42:42;2.65;;;2.45;;
59516;SDS011;45342;42.662;27.718;2023-07-24T13:48:46;2.67;;;2.47;;
59516;SDS011;45342;42.662;27.718;2023-07-24T13:51:12;2.90;;;2.70;;
59516;SDS011;45342;42.662;27.718;2023-07-24T13:53:37;2.90;;;2.67;;
59516;SDS011;45342;42.662;27.718;2023-07-24T13:56:11;2.65;;;2.45;;
59516;SDS011;45342;42.662;27.718;2023-07-24T13:58:36;2.67;;;2.47;;
59516;SDS011;45342;42.662;27.718;2023-07-24T14:01:02;2.90;;;2.70;;
59516;SDS011;45342;42.662;27.718;2023-07-24T14:03:28;2.78;;;2.50;;
59516;SDS011;45342;42.662;27.718;2023-07-24T14:05:58;2.50;;;2.30;;
59516;SDS011;45342;42.662;27.718;2023-07-24T14:08:24;2.58;;;2.38;;
59516;SDS011;45342;42.662;27.718;2023-07-24T14:14:23;2.70;;;2.50;;
59516;SDS011;45342;42.662;27.718;2023-07-24T14:17:24;2.70;;;2.50;;
59516;SDS011;45342;42.662;27.718;2023-07-24T14:20:09;2.42;;;2.22;;
59516;SDS011;45342;42.662;27.718;2023-07-24T14:22:34;2.70;;;2.50;;
59516;SDS011;45342;42.662;27.718;2023-07-24T14:25:04;2.72;;;2.45;;
59516;SDS011;45342;42.662;27.718;2023-07-24T14:27:33;2.88;;;2.63;;
59516;SDS011;45342;42.662;27.718;2023-07-24T14:29:59;2.80;;;2.60;;
59516;SDS011;45342;42.662;27.718;2023-07-24T14:32:24;2.88;;;2.67;;
59516;SDS011;45342;42.662;27.718;2023-07-24T14:34:50;2.95;;;2.75;;
59516;SDS011;45342;42.662;27.718;2023-07-24T14:37:17;2.67;;;2.47;;
59516;SDS011;45342;42.662;27.718;2023-07-24T14:39:43;2.60;;;2.40;;
59516;SDS011;45342;42.662;27.718;2023-07-24T14:42:09;2.70;;;2.50;;
59516;SDS011;45342;42.662;27.718;2023-07-24T14:44:36;2.63;;;2.42;;
59516;SDS011;45342;42.662;27.718;2023-07-24T14:47:01;2.83;;;2.55;;
59516;SDS011;45342;42.662;27.718;2023-07-24T14:49:27;2.65;;;2.45;;
59516;SDS011;45342;42.662;27.718;2023-07-24T14:51:54;2.92;;;2.70;;
59516;SDS011;45342;42.662;27.718;2023-07-24T14:54:19;3.15;;;2.30;;
59516;SDS011;45342;42.662;27.718;2023-07-24T14:56:46;2.80;;;2.60;;
59516;SDS011;45342;42.662;27.718;2023-07-24T14:59:14;2.65;;;2.45;;
59516;SDS011;45342;42.662;27.718;2023-07-24T15:04:09;2.60;;;2.40;;
59516;SDS011;45342;42.662;27.718;2023-07-24T15:06:36;2.90;;;2.70;;
59516;SDS011;45342;42.662;27.718;2023-07-24T15:09:03;3.00;;;2.70;;
59516;SDS011;45342;42.662;27.718;2023-07-24T15:11:28;2.88;;;2.67;;
59516;SDS011;45342;42.662;27.718;2023-07-24T15:13:54;2.70;;;2.50;;
59516;SDS011;45342;42.662;27.718;2023-07-24T15:16:23;2.90;;;2.60;;
59516;SDS011;45342;42.662;27.718;2023-07-24T15:18:49;2.60;;;2.40;;
59516;SDS011;45342;42.662;27.718;2023-07-24T15:21:14;2.70;;;2.50;;
59516;SDS011;45342;42.662;27.718;2023-07-24T15:23:40;3.30;;;2.75;;
59516;SDS011;45342;42.662;27.718;2023-07-24T15:26:07;2.90;;;2.70;;